This is the latest recevied weather packets stored in our database for station/object Ad4UU. If no packets are shown the sender has not sent any weather packets the latest 10 day(s).
| Time | Temp. | Humidity | Pressure | Rain* | Wind** | Luminosity | Snow |
|---|---|---|---|---|---|---|---|
| 1777981548 | 17.22° C | 86% | 1017.5 hPa | 0 mm | - | - | - |
| 1777980650 | 16.11° C | 90% | 1017.4 hPa | 0 mm | - | - | - |
| 1777979754 | 15° C | 93% | 1017.4 hPa | 0 mm | - | - | - |
| 1777974356 | 13.89° C | 90% | 1016.4 hPa | 0 mm | - | - | - |
| 1777973731 | 14.44° C | 90% | 1016.3 hPa | 0 mm | - | - | - |
| 1777973449 | 14.44° C | 90% | 1016.3 hPa | 0 mm | - | - | - |
| 1777972831 | 14.44° C | 90% | 1016.3 hPa | 0 mm | - | - | - |
| 1777972555 | 14.44° C | 90% | 1016.3 hPa | 0 mm | - | - | - |
| 1777971653 | 14.44° C | 89% | 1016.3 hPa | 0 mm | - | - | - |
| 1777969232 | 15° C | 89% | 1016.1 hPa | 0 mm | - | - | - |
| 1777967731 | 15° C | 88% | 1016.1 hPa | 0 mm | - | - | - |
| 1777965032 | 15° C | 87% | 1016.4 hPa | 0 mm | - | - | - |
| 1777960846 | 16.11° C | 83% | 1017 hPa | 0 mm | - | - | - |
| 1777956931 | 17.78° C | 78% | 1017.3 hPa | 0 mm | - | - | - |
| 1777955444 | 18.89° C | 74% | 1017.7 hPa | 0 mm | - | - | - |
| 1777954231 | 19.44° C | 73% | 1017.6 hPa | 0 mm | - | - | - |
| 1777953931 | 19.44° C | 72% | 1017.7 hPa | 0 mm | - | - | - |
| 1777952434 | 20° C | 71% | 1017.8 hPa | 0 mm | - | - | - |
| 1777952134 | 20° C | 71% | 1017.9 hPa | 0 mm | - | - | - |
| 1777951231 | 20.56° C | 70% | 1017.9 hPa | 0 mm | - | - | - |
| 1777947033 | 21.67° C | 66% | 1017.6 hPa | 0 mm | - | - | - |
| 1777946448 | 22.22° C | 65% | 1017.5 hPa | 0 mm | - | - | - |
| 1777944031 | 22.78° C | 62% | 1016.8 hPa | 0 mm | - | - | - |
| 1777942531 | 23.33° C | 60% | 1016.4 hPa | 0 mm | - | - | - |
| 1777941630 | 23.89° C | 59% | 1016.4 hPa | 0 mm | - | - | - |
* Rain latest hour (hover to see other rain measurements)
** Current wind speed in m/s (hover to see current wind gust speed)